sensor_id;sensor_type;location;lat;lon;timestamp;pressure;altitude;pressure_sealevel;temperature;humidity
54918;BME280;40818;50.562;7.454;2022-07-23T05:10:44;97886.63;;;15.65;100.00
54918;BME280;40818;50.562;7.454;2022-07-23T05:15:48;97887.88;;;15.82;100.00
54918;BME280;40818;50.562;7.454;2022-07-23T05:20:52;97887.56;;;16.07;100.00
54918;BME280;40818;50.562;7.454;2022-07-23T05:25:59;97880.63;;;16.36;100.00
54918;BME280;40818;50.562;7.454;2022-07-23T05:31:04;97890.53;;;16.73;100.00
54918;BME280;40818;50.562;7.454;2022-07-23T05:36:09;97891.69;;;17.10;100.00
54918;BME280;40818;50.562;7.454;2022-07-23T05:41:25;97890.44;;;17.24;100.00
54918;BME280;40818;50.562;7.454;2022-07-23T05:46:29;97897.63;;;17.32;100.00
54918;BME280;40818;50.562;7.454;2022-07-23T05:51:38;97913.50;;;17.40;100.00
54918;BME280;40818;50.562;7.454;2022-07-23T05:56:44;97919.03;;;17.47;100.00
54918;BME280;40818;50.562;7.454;2022-07-23T06:01:48;97923.03;;;17.61;100.00
54918;BME280;40818;50.562;7.454;2022-07-23T06:06:51;97924.09;;;17.78;100.00
54918;BME280;40818;50.562;7.454;2022-07-23T06:11:59;97932.91;;;17.96;100.00
54918;BME280;40818;50.562;7.454;2022-07-23T06:17:02;97932.09;;;17.96;100.00
54918;BME280;40818;50.562;7.454;2022-07-23T06:22:06;97930.72;;;17.91;100.00
54918;BME280;40818;50.562;7.454;2022-07-23T06:27:13;97929.31;;;18.07;100.00
54918;BME280;40818;50.562;7.454;2022-07-23T06:32:16;97934.94;;;18.22;99.67
54918;BME280;40818;50.562;7.454;2022-07-23T06:37:19;97927.81;;;18.32;98.10
54918;BME280;40818;50.562;7.454;2022-07-23T06:42:25;97941.22;;;18.67;97.43
54918;BME280;40818;50.562;7.454;2022-07-23T06:47:32;97946.19;;;18.70;96.02
54918;BME280;40818;50.562;7.454;2022-07-23T06:52:35;97952.34;;;19.06;95.96
54918;BME280;40818;50.562;7.454;2022-07-23T06:57:42;97966.16;;;19.36;92.97
54918;BME280;40818;50.562;7.454;2022-07-23T07:02:46;97973.56;;;19.95;93.22
54918;BME280;40818;50.562;7.454;2022-07-23T07:07:49;97964.50;;;21.01;88.27
54918;BME280;40818;50.562;7.454;2022-07-23T07:12:55;97976.50;;;21.88;84.56
54918;BME280;40818;50.562;7.454;2022-07-23T07:17:58;97974.41;;;22.56;80.36
54918;BME280;40818;50.562;7.454;2022-07-23T07:23:02;97976.81;;;23.60;76.32
54918;BME280;40818;50.562;7.454;2022-07-23T07:28:08;97969.28;;;24.10;72.39
54918;BME280;40818;50.562;7.454;2022-07-23T07:33:11;97980.75;;;24.85;68.41
54918;BME280;40818;50.562;7.454;2022-07-23T07:38:14;97984.72;;;25.47;62.19
54918;BME280;40818;50.562;7.454;2022-07-23T07:43:20;97996.53;;;26.10;56.29
54918;BME280;40818;50.562;7.454;2022-07-23T07:48:24;97996.38;;;26.60;55.52
54918;BME280;40818;50.562;7.454;2022-07-23T07:53:27;98000.84;;;26.87;54.10
54918;BME280;40818;50.562;7.454;2022-07-23T07:58:33;98001.56;;;27.09;50.69
54918;BME280;40818;50.562;7.454;2022-07-23T08:03:37;98011.34;;;27.64;49.36
54918;BME280;40818;50.562;7.454;2022-07-23T08:08:40;98010.97;;;28.21;50.08
54918;BME280;40818;50.562;7.454;2022-07-23T08:13:46;98017.81;;;28.82;47.15
54918;BME280;40818;50.562;7.454;2022-07-23T08:18:49;98017.41;;;29.37;44.93
54918;BME280;40818;50.562;7.454;2022-07-23T08:23:53;98025.41;;;29.37;43.33
54918;BME280;40818;50.562;7.454;2022-07-23T08:28:59;98025.56;;;30.32;42.56
54918;BME280;40818;50.562;7.454;2022-07-23T08:34:02;98022.38;;;30.41;40.11
54918;BME280;40818;50.562;7.454;2022-07-23T08:39:05;98022.53;;;30.46;37.71
54918;BME280;40818;50.562;7.454;2022-07-23T08:44:12;98035.19;;;29.89;39.85
54918;BME280;40818;50.562;7.454;2022-07-23T08:49:16;98035.16;;;30.83;39.36
54918;BME280;40818;50.562;7.454;2022-07-23T08:54:20;98040.81;;;31.42;36.01
54918;BME280;40818;50.562;7.454;2022-07-23T08:59:28;98033.78;;;32.38;35.37
54918;BME280;40818;50.562;7.454;2022-07-23T09:04:32;98031.59;;;32.99;34.45
54918;BME280;40818;50.562;7.454;2022-07-23T09:09:36;98032.28;;;32.42;29.71
54918;BME280;40818;50.562;7.454;2022-07-23T09:14:44;98040.19;;;32.60;32.63
54918;BME280;40818;50.562;7.454;2022-07-23T09:19:49;98034.66;;;33.31;33.09
54918;BME280;40818;50.562;7.454;2022-07-23T09:25:07;98045.09;;;32.63;32.89
54918;BME280;40818;50.562;7.454;2022-07-23T09:30:14;98033.72;;;31.90;31.88
54918;BME280;40818;50.562;7.454;2022-07-23T09:35:18;98041.59;;;32.75;33.63
54918;BME280;40818;50.562;7.454;2022-07-23T09:40:22;98042.78;;;33.08;31.14
54918;BME280;40818;50.562;7.454;2022-07-23T09:45:28;98057.91;;;31.29;33.34
54918;BME280;40818;50.562;7.454;2022-07-23T09:50:31;98047.09;;;32.32;32.43
54918;BME280;40818;50.562;7.454;2022-07-23T09:55:36;98048.72;;;32.69;31.89
54918;BME280;40818;50.562;7.454;2022-07-23T10:00:43;98041.88;;;33.60;31.73
54918;BME280;40818;50.562;7.454;2022-07-23T10:05:50;98045.44;;;33.31;32.36
54918;BME280;40818;50.562;7.454;2022-07-23T10:11:03;98041.25;;;33.69;29.54
54918;BME280;40818;50.562;7.454;2022-07-23T10:16:22;98034.13;;;34.09;30.44
54918;BME280;40818;50.562;7.454;2022-07-23T10:21:30;98042.94;;;34.05;30.43
54918;BME280;40818;50.562;7.454;2022-07-23T10:26:41;98043.75;;;33.88;30.34
54918;BME280;40818;50.562;7.454;2022-07-23T10:31:58;98038.53;;;32.59;30.32
54918;BME280;40818;50.562;7.454;2022-07-23T10:37:08;98031.31;;;32.48;31.25
54918;BME280;40818;50.562;7.454;2022-07-23T10:42:17;98033.22;;;32.24;30.26
54918;BME280;40818;50.562;7.454;2022-07-23T10:47:27;98036.34;;;32.56;30.50
54918;BME280;40818;50.562;7.454;2022-07-23T10:53:16;98030.47;;;31.58;30.28
54918;BME280;40818;50.562;7.454;2022-07-23T10:58:22;98030.63;;;32.17;32.07
54918;BME280;40818;50.562;7.454;2022-07-23T11:03:34;98032.47;;;33.28;31.29
54918;BME280;40818;50.562;7.454;2022-07-23T11:08:39;98030.03;;;33.73;30.33
54918;BME280;40818;50.562;7.454;2022-07-23T11:13:47;98031.50;;;34.70;28.33
54918;BME280;40818;50.562;7.454;2022-07-23T11:19:07;98034.94;;;34.27;29.17
54918;BME280;40818;50.562;7.454;2022-07-23T11:24:12;98032.00;;;33.94;28.41
54918;BME280;40818;50.562;7.454;2022-07-23T11:29:37;98023.97;;;32.31;28.88
54918;BME280;40818;50.562;7.454;2022-07-23T11:34:45;98022.91;;;31.24;30.56
54918;BME280;40818;50.562;7.454;2022-07-23T11:39:53;98013.97;;;32.91;28.60
54918;BME280;40818;50.562;7.454;2022-07-23T11:44:57;98005.06;;;34.11;27.68
54918;BME280;40818;50.562;7.454;2022-07-23T11:50:05;98012.41;;;33.82;28.83
54918;BME280;40818;50.562;7.454;2022-07-23T11:55:11;98009.97;;;34.31;27.86
54918;BME280;40818;50.562;7.454;2022-07-23T12:00:18;98014.94;;;33.26;27.80
54918;BME280;40818;50.562;7.454;2022-07-23T12:05:28;98010.63;;;32.72;27.85
54918;BME280;40818;50.562;7.454;2022-07-23T12:10:35;98010.91;;;32.99;29.19
54918;BME280;40818;50.562;7.454;2022-07-23T12:15:40;98003.06;;;34.24;27.88
54918;BME280;40818;50.562;7.454;2022-07-23T12:20:48;98014.03;;;34.17;27.89
54918;BME280;40818;50.562;7.454;2022-07-23T12:25:53;98012.16;;;34.96;26.95
54918;BME280;40818;50.562;7.454;2022-07-23T12:46:52;98017.03;;;33.69;29.08
54918;BME280;40818;50.562;7.454;2022-07-23T12:51:55;98015.72;;;33.72;28.49
54918;BME280;40818;50.562;7.454;2022-07-23T13:41:08;98012.63;;;33.46;29.40
54918;BME280;40818;50.562;7.454;2022-07-23T13:46:11;98014.25;;;33.07;29.92
54918;BME280;40818;50.562;7.454;2022-07-23T13:51:14;98022.53;;;32.53;30.16
54918;BME280;40818;50.562;7.454;2022-07-23T13:56:21;98012.41;;;32.19;29.97
54918;BME280;40818;50.562;7.454;2022-07-23T14:01:24;98003.34;;;31.36;30.99
54918;BME280;40818;50.562;7.454;2022-07-23T14:06:27;98023.19;;;31.35;31.62
54918;BME280;40818;50.562;7.454;2022-07-23T14:11:33;98012.66;;;30.84;30.72
54918;BME280;40818;50.562;7.454;2022-07-23T14:16:37;98012.81;;;30.52;32.47
54918;BME280;40818;50.562;7.454;2022-07-23T14:21:40;98016.06;;;29.85;32.35
54918;BME280;40818;50.562;7.454;2022-07-23T14:26:46;98024.16;;;30.04;32.93
54918;BME280;40818;50.562;7.454;2022-07-23T14:31:49;98024.66;;;30.38;33.00
54918;BME280;40818;50.562;7.454;2022-07-23T14:36:53;98019.09;;;29.95;33.97
54918;BME280;40818;50.562;7.454;2022-07-23T14:41:58;98007.41;;;29.83;32.90
54918;BME280;40818;50.562;7.454;2022-07-23T14:47:03;98012.88;;;29.38;34.07
54918;BME280;40818;50.562;7.454;2022-07-23T14:52:07;98014.19;;;29.15;33.58
54918;BME280;40818;50.562;7.454;2022-07-23T14:57:13;98007.19;;;29.21;34.30
54918;BME280;40818;50.562;7.454;2022-07-23T15:02:16;98001.75;;;28.95;34.55
54918;BME280;40818;50.562;7.454;2022-07-23T15:07:19;97999.75;;;28.84;34.96
54918;BME280;40818;50.562;7.454;2022-07-23T15:55:44;97997.09;;;27.23;38.08
54918;BME280;40818;50.562;7.454;2022-07-23T16:00:48;97998.28;;;27.07;37.67
54918;BME280;40818;50.562;7.454;2022-07-23T16:05:51;98005.84;;;27.04;37.98
54918;BME280;40818;50.562;7.454;2022-07-23T16:10:57;98003.75;;;26.92;38.60
54918;BME280;40818;50.562;7.454;2022-07-23T16:16:01;98003.53;;;26.52;39.57
54918;BME280;40818;50.562;7.454;2022-07-23T16:21:04;98007.97;;;26.73;39.10
54918;BME280;40818;50.562;7.454;2022-07-23T16:26:10;98009.81;;;26.73;40.27
54918;BME280;40818;50.562;7.454;2022-07-23T16:31:15;98006.53;;;26.43;39.44
54918;BME280;40818;50.562;7.454;2022-07-23T16:36:18;98013.66;;;25.85;40.44
54918;BME280;40818;50.562;7.454;2022-07-23T16:41:24;98006.97;;;25.46;41.18
54918;BME280;40818;50.562;7.454;2022-07-23T16:46:28;98014.00;;;25.76;42.14
54918;BME280;40818;50.562;7.454;2022-07-23T16:51:31;98009.50;;;25.76;42.24
54918;BME280;40818;50.562;7.454;2022-07-23T16:56:37;98014.81;;;25.54;42.05
54918;BME280;40818;50.562;7.454;2022-07-23T17:01:41;98014.34;;;25.44;42.26
54918;BME280;40818;50.562;7.454;2022-07-23T17:06:45;98014.81;;;25.33;41.71
54918;BME280;40818;50.562;7.454;2022-07-23T17:11:51;98012.22;;;25.39;42.46
54918;BME280;40818;50.562;7.454;2022-07-23T17:16:55;98018.47;;;25.32;42.39
54918;BME280;40818;50.562;7.454;2022-07-23T17:21:58;98015.94;;;25.09;42.17
54918;BME280;40818;50.562;7.454;2022-07-23T17:27:04;98014.78;;;24.96;43.69
54918;BME280;40818;50.562;7.454;2022-07-23T17:32:08;98014.06;;;24.87;43.37
54918;BME280;40818;50.562;7.454;2022-07-23T17:37:11;98012.88;;;24.75;43.70
54918;BME280;40818;50.562;7.454;2022-07-23T17:42:17;98019.25;;;24.36;43.82
54918;BME280;40818;50.562;7.454;2022-07-23T17:47:21;98015.41;;;24.53;44.03
54918;BME280;40818;50.562;7.454;2022-07-23T17:52:24;98025.47;;;24.43;44.09
54918;BME280;40818;50.562;7.454;2022-07-23T17:57:30;98018.41;;;24.35;43.87
54918;BME280;40818;50.562;7.454;2022-07-23T18:02:34;98022.69;;;24.22;44.97
54918;BME280;40818;50.562;7.454;2022-07-23T18:07:38;98028.84;;;24.22;45.45
54918;BME280;40818;50.562;7.454;2022-07-23T18:12:44;98026.53;;;24.04;45.31
54918;BME280;40818;50.562;7.454;2022-07-23T18:17:48;98033.06;;;23.93;45.64
54918;BME280;40818;50.562;7.454;2022-07-23T18:22:51;98022.75;;;23.75;45.99
54918;BME280;40818;50.562;7.454;2022-07-23T18:27:58;98037.34;;;23.71;45.97
54918;BME280;40818;50.562;7.454;2022-07-23T18:33:01;98042.00;;;23.69;46.39
54918;BME280;40818;50.562;7.454;2022-07-23T18:38:05;98047.47;;;23.44;47.15
54918;BME280;40818;50.562;7.454;2022-07-23T18:43:11;98048.56;;;23.27;47.61
54918;BME280;40818;50.562;7.454;2022-07-23T18:48:14;98059.53;;;23.15;48.00
54918;BME280;40818;50.562;7.454;2022-07-23T18:53:17;98054.63;;;22.96;48.38
54918;BME280;40818;50.562;7.454;2022-07-23T18:58:24;98058.78;;;22.90;48.54
54918;BME280;40818;50.562;7.454;2022-07-23T19:03:28;98069.59;;;22.72;48.37
54918;BME280;40818;50.562;7.454;2022-07-23T19:08:31;98067.97;;;22.63;49.91
54918;BME280;40818;50.562;7.454;2022-07-23T19:13:37;98077.22;;;22.59;50.13
54918;BME280;40818;50.562;7.454;2022-07-23T19:18:41;98074.94;;;22.47;50.01
54918;BME280;40818;50.562;7.454;2022-07-23T19:23:44;98081.56;;;22.27;50.76
54918;BME280;40818;50.562;7.454;2022-07-23T19:28:50;98081.22;;;22.13;51.22
54918;BME280;40818;50.562;7.454;2022-07-23T19:33:53;98091.44;;;21.92;51.48
54918;BME280;40818;50.562;7.454;2022-07-23T19:38:57;98083.84;;;21.80;52.60
54918;BME280;40818;50.562;7.454;2022-07-23T19:44:03;98088.47;;;21.78;52.33
54918;BME280;40818;50.562;7.454;2022-07-23T19:49:07;98091.88;;;21.54;51.80
54918;BME280;40818;50.562;7.454;2022-07-23T19:54:10;98095.63;;;21.35;52.54
54918;BME280;40818;50.562;7.454;2022-07-23T19:59:16;98100.06;;;21.35;52.50
54918;BME280;40818;50.562;7.454;2022-07-23T20:04:19;98095.19;;;21.13;53.08
54918;BME280;40818;50.562;7.454;2022-07-23T20:09:23;98099.16;;;21.09;52.81
54918;BME280;40818;50.562;7.454;2022-07-23T20:14:30;98098.25;;;20.92;52.96
54918;BME280;40818;50.562;7.454;2022-07-23T20:19:33;98100.78;;;20.76;53.49
54918;BME280;40818;50.562;7.454;2022-07-23T20:24:37;98107.72;;;20.33;58.85
54918;BME280;40818;50.562;7.454;2022-07-23T20:29:43;98113.38;;;20.38;57.45
54918;BME280;40818;50.562;7.454;2022-07-23T20:34:46;98120.50;;;20.45;57.91
54918;BME280;40818;50.562;7.454;2022-07-23T20:39:49;98127.44;;;20.46;58.02
54918;BME280;40818;50.562;7.454;2022-07-23T20:44:55;98123.47;;;20.42;58.69
54918;BME280;40818;50.562;7.454;2022-07-23T20:49:59;98123.78;;;20.39;58.32
54918;BME280;40818;50.562;7.454;2022-07-23T20:55:04;98110.53;;;20.31;57.97
54918;BME280;40818;50.562;7.454;2022-07-23T21:00:13;98117.75;;;20.29;57.76
54918;BME280;40818;50.562;7.454;2022-07-23T21:05:17;98129.72;;;20.23;57.70
54918;BME280;40818;50.562;7.454;2022-07-23T21:10:20;98138.41;;;20.16;57.61
54918;BME280;40818;50.562;7.454;2022-07-23T21:15:27;98135.69;;;20.07;59.01
54918;BME280;40818;50.562;7.454;2022-07-23T21:20:30;98135.69;;;19.89;59.50
54918;BME280;40818;50.562;7.454;2022-07-23T21:25:53;98138.94;;;19.73;60.32
54918;BME280;40818;50.562;7.454;2022-07-23T21:30:59;98139.25;;;19.70;61.29
54918;BME280;40818;50.562;7.454;2022-07-23T21:36:04;98149.13;;;19.68;62.41
54918;BME280;40818;50.562;7.454;2022-07-23T21:41:08;98149.31;;;19.57;61.70
54918;BME280;40818;50.562;7.454;2022-07-23T21:46:13;98147.25;;;19.51;62.78
54918;BME280;40818;50.562;7.454;2022-07-23T21:51:17;98145.09;;;19.46;63.20
54918;BME280;40818;50.562;7.454;2022-07-23T21:56:20;98149.13;;;19.40;62.16
54918;BME280;40818;50.562;7.454;2022-07-23T22:01:26;98156.56;;;19.17;64.33
54918;BME280;40818;50.562;7.454;2022-07-23T22:06:30;98150.97;;;18.83;65.93
54918;BME280;40818;50.562;7.454;2022-07-23T22:11:33;98157.06;;;18.93;65.99
54918;BME280;40818;50.562;7.454;2022-07-23T22:16:39;98157.06;;;18.93;65.64
54918;BME280;40818;50.562;7.454;2022-07-23T22:21:42;98163.97;;;18.94;65.70
54918;BME280;40818;50.562;7.454;2022-07-23T22:26:46;98167.47;;;18.95;65.77
54918;BME280;40818;50.562;7.454;2022-07-23T22:31:52;98164.28;;;18.91;65.40
54918;BME280;40818;50.562;7.454;2022-07-23T22:36:56;98161.94;;;18.88;64.92
54918;BME280;40818;50.562;7.454;2022-07-23T22:41:59;98158.22;;;18.61;66.20
54918;BME280;40818;50.562;7.454;2022-07-23T22:47:05;98154.59;;;18.62;66.88
54918;BME280;40818;50.562;7.454;2022-07-23T22:52:08;98164.31;;;18.62;66.34
54918;BME280;40818;50.562;7.454;2022-07-23T22:57:12;98153.94;;;18.60;66.35
54918;BME280;40818;50.562;7.454;2022-07-23T23:02:18;98154.75;;;18.51;66.56
54918;BME280;40818;50.562;7.454;2022-07-23T23:07:21;98155.47;;;18.43;66.30
54918;BME280;40818;50.562;7.454;2022-07-23T23:12:25;98150.91;;;18.45;66.57
54918;BME280;40818;50.562;7.454;2022-07-23T23:17:31;98148.28;;;18.45;66.72
54918;BME280;40818;50.562;7.454;2022-07-23T23:22:34;98153.53;;;18.35;66.81
54918;BME280;40818;50.562;7.454;2022-07-23T23:27:37;98152.44;;;18.28;66.99
54918;BME280;40818;50.562;7.454;2022-07-23T23:32:43;98140.41;;;18.25;67.16
54918;BME280;40818;50.562;7.454;2022-07-23T23:37:47;98149.25;;;18.15;69.16
54918;BME280;40818;50.562;7.454;2022-07-23T23:42:50;98145.81;;;18.14;67.84
54918;BME280;40818;50.562;7.454;2022-07-23T23:47:56;98148.44;;;18.14;68.26
